sensor_id;sensor_type;location;lat;lon;timestamp;P1;durP1;ratioP1;P2;durP2;ratioP2
33672;SDS011;20011;51.510;9.942;2022-08-01T00:00:20;2.60;;;1.90;;
33672;SDS011;20011;51.510;9.942;2022-08-01T00:02:46;3.03;;;1.80;;
33672;SDS011;20011;51.510;9.942;2022-08-01T00:05:14;6.63;;;2.30;;
33672;SDS011;20011;51.510;9.942;2022-08-01T00:07:41;3.47;;;1.90;;
33672;SDS011;20011;51.510;9.942;2022-08-01T00:10:10;3.42;;;2.15;;
33672;SDS011;20011;51.510;9.942;2022-08-01T00:12:38;4.28;;;1.92;;
33672;SDS011;20011;51.510;9.942;2022-08-01T00:15:07;7.30;;;2.30;;
33672;SDS011;20011;51.510;9.942;2022-08-01T00:17:35;2.10;;;1.90;;
33672;SDS011;20011;51.510;9.942;2022-08-01T00:20:03;2.60;;;2.00;;
33672;SDS011;20011;51.510;9.942;2022-08-01T00:22:31;2.65;;;1.88;;
33672;SDS011;20011;51.510;9.942;2022-08-01T00:24:59;2.70;;;1.88;;
33672;SDS011;20011;51.510;9.942;2022-08-01T00:27:26;2.40;;;1.90;;
33672;SDS011;20011;51.510;9.942;2022-08-01T00:29:53;4.07;;;1.58;;
33672;SDS011;20011;51.510;9.942;2022-08-01T00:32:40;2.40;;;1.75;;
33672;SDS011;20011;51.510;9.942;2022-08-01T00:35:08;3.90;;;1.88;;
33672;SDS011;20011;51.510;9.942;2022-08-01T00:37:36;5.43;;;1.85;;
33672;SDS011;20011;51.510;9.942;2022-08-01T00:40:03;3.83;;;2.17;;
33672;SDS011;20011;51.510;9.942;2022-08-01T00:42:30;3.05;;;1.98;;
33672;SDS011;20011;51.510;9.942;2022-08-01T00:44:57;1.95;;;1.75;;
33672;SDS011;20011;51.510;9.942;2022-08-01T00:47:25;10.55;;;2.50;;
33672;SDS011;20011;51.510;9.942;2022-08-01T00:49:52;6.68;;;2.75;;
33672;SDS011;20011;51.510;9.942;2022-08-01T00:52:19;5.40;;;2.47;;
33672;SDS011;20011;51.510;9.942;2022-08-01T00:54:46;3.42;;;2.55;;
33672;SDS011;20011;51.510;9.942;2022-08-01T00:57:13;3.83;;;2.60;;
33672;SDS011;20011;51.510;9.942;2022-08-01T00:59:48;4.07;;;2.85;;
33672;SDS011;20011;51.510;9.942;2022-08-01T01:02:15;5.75;;;2.47;;
33672;SDS011;20011;51.510;9.942;2022-08-01T01:04:44;4.45;;;2.60;;
33672;SDS011;20011;51.510;9.942;2022-08-01T01:10:00;4.50;;;2.67;;
33672;SDS011;20011;51.510;9.942;2022-08-01T01:12:37;5.30;;;2.45;;
33672;SDS011;20011;51.510;9.942;2022-08-01T01:15:22;8.52;;;2.70;;
33672;SDS011;20011;51.510;9.942;2022-08-01T01:17:57;7.28;;;2.63;;
33672;SDS011;20011;51.510;9.942;2022-08-01T01:20:34;5.72;;;2.72;;
33672;SDS011;20011;51.510;9.942;2022-08-01T01:23:06;5.97;;;2.55;;
33672;SDS011;20011;51.510;9.942;2022-08-01T01:26:01;4.97;;;3.00;;
33672;SDS011;20011;51.510;9.942;2022-08-01T01:31:36;4.18;;;2.50;;
33672;SDS011;20011;51.510;9.942;2022-08-01T01:34:11;6.50;;;2.97;;
33672;SDS011;20011;51.510;9.942;2022-08-01T01:36:40;3.63;;;2.80;;
33672;SDS011;20011;51.510;9.942;2022-08-01T01:39:09;6.05;;;2.83;;
33672;SDS011;20011;51.510;9.942;2022-08-01T01:41:37;7.90;;;2.72;;
33672;SDS011;20011;51.510;9.942;2022-08-01T01:44:06;10.88;;;2.58;;
33672;SDS011;20011;51.510;9.942;2022-08-01T01:46:36;5.93;;;2.80;;
33672;SDS011;20011;51.510;9.942;2022-08-01T01:49:04;5.55;;;2.40;;
33672;SDS011;20011;51.510;9.942;2022-08-01T01:51:36;5.55;;;2.40;;
33672;SDS011;20011;51.510;9.942;2022-08-01T01:54:05;2.25;;;1.75;;
33672;SDS011;20011;51.510;9.942;2022-08-01T01:56:35;7.40;;;2.38;;
33672;SDS011;20011;51.510;9.942;2022-08-01T01:59:16;3.43;;;2.33;;
33672;SDS011;20011;51.510;9.942;2022-08-01T02:01:51;4.30;;;2.63;;
33672;SDS011;20011;51.510;9.942;2022-08-01T02:04:32;7.93;;;2.70;;
33672;SDS011;20011;51.510;9.942;2022-08-01T02:07:02;4.25;;;2.65;;
33672;SDS011;20011;51.510;9.942;2022-08-01T02:09:29;3.45;;;2.60;;
33672;SDS011;20011;51.510;9.942;2022-08-01T02:11:58;4.43;;;2.22;;
33672;SDS011;20011;51.510;9.942;2022-08-01T02:14:33;10.60;;;3.25;;
33672;SDS011;20011;51.510;9.942;2022-08-01T02:17:01;5.25;;;3.20;;
33672;SDS011;20011;51.510;9.942;2022-08-01T02:19:30;19.20;;;3.60;;
33672;SDS011;20011;51.510;9.942;2022-08-01T02:24:39;5.65;;;3.63;;
33672;SDS011;20011;51.510;9.942;2022-08-01T02:27:11;8.95;;;4.28;;
33672;SDS011;20011;51.510;9.942;2022-08-01T02:29:46;8.82;;;4.07;;
33672;SDS011;20011;51.510;9.942;2022-08-01T02:32:27;6.00;;;4.05;;
33672;SDS011;20011;51.510;9.942;2022-08-01T02:34:59;10.02;;;4.18;;
33672;SDS011;20011;51.510;9.942;2022-08-01T02:37:29;9.45;;;4.25;;
33672;SDS011;20011;51.510;9.942;2022-08-01T02:40:00;9.75;;;4.50;;
33672;SDS011;20011;51.510;9.942;2022-08-01T02:42:28;4.00;;;3.60;;
33672;SDS011;20011;51.510;9.942;2022-08-01T02:44:57;10.50;;;4.55;;
33672;SDS011;20011;51.510;9.942;2022-08-01T02:47:25;4.60;;;3.80;;
33672;SDS011;20011;51.510;9.942;2022-08-01T02:49:53;10.80;;;4.95;;
33672;SDS011;20011;51.510;9.942;2022-08-01T02:52:22;12.23;;;4.45;;
33672;SDS011;20011;51.510;9.942;2022-08-01T02:54:51;13.13;;;4.20;;
33672;SDS011;20011;51.510;9.942;2022-08-01T02:57:21;8.80;;;3.83;;
33672;SDS011;20011;51.510;9.942;2022-08-01T03:00:04;10.85;;;4.78;;
33672;SDS011;20011;51.510;9.942;2022-08-01T03:02:33;6.90;;;4.60;;
33672;SDS011;20011;51.510;9.942;2022-08-01T03:05:02;8.90;;;4.60;;
33672;SDS011;20011;51.510;9.942;2022-08-01T03:07:29;6.93;;;4.70;;
33672;SDS011;20011;51.510;9.942;2022-08-01T03:10:00;6.40;;;5.20;;
33672;SDS011;20011;51.510;9.942;2022-08-01T03:12:29;9.27;;;5.00;;
33672;SDS011;20011;51.510;9.942;2022-08-01T03:14:57;10.43;;;5.35;;
33672;SDS011;20011;51.510;9.942;2022-08-01T03:17:25;12.20;;;6.13;;
33672;SDS011;20011;51.510;9.942;2022-08-01T03:19:55;9.32;;;5.55;;
33672;SDS011;20011;51.510;9.942;2022-08-01T03:22:25;11.43;;;6.30;;
33672;SDS011;20011;51.510;9.942;2022-08-01T03:24:54;9.75;;;5.80;;
33672;SDS011;20011;51.510;9.942;2022-08-01T03:27:23;7.95;;;5.80;;
33672;SDS011;20011;51.510;9.942;2022-08-01T03:29:51;9.20;;;6.13;;
33672;SDS011;20011;51.510;9.942;2022-08-01T03:32:22;9.25;;;4.93;;
33672;SDS011;20011;51.510;9.942;2022-08-01T03:34:51;7.05;;;4.22;;
33672;SDS011;20011;51.510;9.942;2022-08-01T03:37:23;8.15;;;3.20;;
33672;SDS011;20011;51.510;9.942;2022-08-01T03:39:57;5.57;;;3.05;;
33672;SDS011;20011;51.510;9.942;2022-08-01T03:42:31;3.65;;;3.08;;
33672;SDS011;20011;51.510;9.942;2022-08-01T03:45:10;4.85;;;3.30;;
33672;SDS011;20011;51.510;9.942;2022-08-01T03:47:49;6.40;;;3.45;;
33672;SDS011;20011;51.510;9.942;2022-08-01T03:50:19;6.85;;;3.70;;
33672;SDS011;20011;51.510;9.942;2022-08-01T03:52:48;4.38;;;3.00;;
33672;SDS011;20011;51.510;9.942;2022-08-01T03:55:17;5.32;;;3.75;;
33672;SDS011;20011;51.510;9.942;2022-08-01T03:57:46;7.47;;;3.70;;
33672;SDS011;20011;51.510;9.942;2022-08-01T04:00:14;7.28;;;3.85;;
33672;SDS011;20011;51.510;9.942;2022-08-01T04:02:47;3.60;;;3.30;;
33672;SDS011;20011;51.510;9.942;2022-08-01T04:05:16;5.47;;;4.05;;
33672;SDS011;20011;51.510;9.942;2022-08-01T04:07:48;3.47;;;3.00;;
33672;SDS011;20011;51.510;9.942;2022-08-01T04:10:22;5.63;;;3.10;;
33672;SDS011;20011;51.510;9.942;2022-08-01T04:12:50;3.20;;;2.42;;
33672;SDS011;20011;51.510;9.942;2022-08-01T04:15:17;7.47;;;3.15;;
33672;SDS011;20011;51.510;9.942;2022-08-01T04:17:46;6.57;;;3.10;;
33672;SDS011;20011;51.510;9.942;2022-08-01T04:20:14;3.30;;;3.00;;
33672;SDS011;20011;51.510;9.942;2022-08-01T04:22:42;5.45;;;3.83;;
33672;SDS011;20011;51.510;9.942;2022-08-01T04:25:14;6.68;;;3.60;;
33672;SDS011;20011;51.510;9.942;2022-08-01T04:27:46;3.45;;;3.15;;
33672;SDS011;20011;51.510;9.942;2022-08-01T04:30:19;3.67;;;3.38;;
33672;SDS011;20011;51.510;9.942;2022-08-01T04:32:50;3.78;;;3.10;;
33672;SDS011;20011;51.510;9.942;2022-08-01T04:35:20;5.65;;;3.72;;
33672;SDS011;20011;51.510;9.942;2022-08-01T04:38:08;7.28;;;3.72;;
33672;SDS011;20011;51.510;9.942;2022-08-01T04:40:37;7.15;;;4.13;;
33672;SDS011;20011;51.510;9.942;2022-08-01T04:43:06;4.15;;;3.53;;
33672;SDS011;20011;51.510;9.942;2022-08-01T04:45:34;7.63;;;3.72;;
33672;SDS011;20011;51.510;9.942;2022-08-01T04:48:04;7.82;;;3.65;;
33672;SDS011;20011;51.510;9.942;2022-08-01T04:53:00;5.00;;;3.78;;
33672;SDS011;20011;51.510;9.942;2022-08-01T04:55:29;7.00;;;4.22;;
33672;SDS011;20011;51.510;9.942;2022-08-01T04:57:57;5.60;;;4.20;;
33672;SDS011;20011;51.510;9.942;2022-08-01T05:00:25;7.25;;;3.75;;
33672;SDS011;20011;51.510;9.942;2022-08-01T05:02:56;4.35;;;3.28;;
33672;SDS011;20011;51.510;9.942;2022-08-01T05:05:23;7.35;;;3.63;;
33672;SDS011;20011;51.510;9.942;2022-08-01T05:07:52;7.45;;;3.92;;
33672;SDS011;20011;51.510;9.942;2022-08-01T05:10:19;7.05;;;3.80;;
33672;SDS011;20011;51.510;9.942;2022-08-01T05:12:47;7.95;;;3.30;;
33672;SDS011;20011;51.510;9.942;2022-08-01T05:15:14;4.78;;;3.58;;
33672;SDS011;20011;51.510;9.942;2022-08-01T05:17:42;7.57;;;3.67;;
33672;SDS011;20011;51.510;9.942;2022-08-01T05:20:10;8.48;;;3.42;;
33672;SDS011;20011;51.510;9.942;2022-08-01T05:22:38;4.72;;;3.28;;
33672;SDS011;20011;51.510;9.942;2022-08-01T05:25:05;10.38;;;3.50;;
33672;SDS011;20011;51.510;9.942;2022-08-01T05:27:33;4.47;;;2.88;;
33672;SDS011;20011;51.510;9.942;2022-08-01T05:30:08;4.18;;;2.85;;
33672;SDS011;20011;51.510;9.942;2022-08-01T05:32:36;4.55;;;3.08;;
33672;SDS011;20011;51.510;9.942;2022-08-01T05:35:04;5.32;;;3.28;;
33672;SDS011;20011;51.510;9.942;2022-08-01T05:37:32;7.22;;;3.00;;
33672;SDS011;20011;51.510;9.942;2022-08-01T05:39:59;5.75;;;3.03;;
33672;SDS011;20011;51.510;9.942;2022-08-01T05:42:27;3.05;;;2.53;;
33672;SDS011;20011;51.510;9.942;2022-08-01T05:44:54;3.97;;;2.60;;
33672;SDS011;20011;51.510;9.942;2022-08-01T05:47:22;4.07;;;2.10;;
33672;SDS011;20011;51.510;9.942;2022-08-01T05:49:49;2.70;;;2.50;;
33672;SDS011;20011;51.510;9.942;2022-08-01T05:52:16;2.33;;;2.13;;
33672;SDS011;20011;51.510;9.942;2022-08-01T05:54:44;4.35;;;2.42;;
33672;SDS011;20011;51.510;9.942;2022-08-01T05:57:11;2.65;;;2.10;;
33672;SDS011;20011;51.510;9.942;2022-08-01T05:59:40;2.17;;;1.98;;
33672;SDS011;20011;51.510;9.942;2022-08-01T06:02:08;4.35;;;1.88;;
33672;SDS011;20011;51.510;9.942;2022-08-01T06:04:36;8.55;;;2.10;;
33672;SDS011;20011;51.510;9.942;2022-08-01T06:07:03;2.45;;;2.10;;
33672;SDS011;20011;51.510;9.942;2022-08-01T06:09:31;1.85;;;1.65;;
33672;SDS011;20011;51.510;9.942;2022-08-01T06:11:59;2.05;;;1.88;;
33672;SDS011;20011;51.510;9.942;2022-08-01T06:14:26;7.45;;;1.50;;
33672;SDS011;20011;51.510;9.942;2022-08-01T06:16:53;4.47;;;1.70;;
33672;SDS011;20011;51.510;9.942;2022-08-01T06:19:21;3.58;;;1.98;;
33672;SDS011;20011;51.510;9.942;2022-08-01T06:21:48;2.38;;;1.77;;
33672;SDS011;20011;51.510;9.942;2022-08-01T06:24:16;2.63;;;1.67;;
33672;SDS011;20011;51.510;9.942;2022-08-01T06:26:43;2.45;;;1.67;;
33672;SDS011;20011;51.510;9.942;2022-08-01T06:29:10;1.55;;;1.45;;
33672;SDS011;20011;51.510;9.942;2022-08-01T06:31:37;1.73;;;1.58;;
33672;SDS011;20011;51.510;9.942;2022-08-01T06:34:05;1.85;;;1.60;;
33672;SDS011;20011;51.510;9.942;2022-08-01T06:36:32;3.30;;;1.40;;
33672;SDS011;20011;51.510;9.942;2022-08-01T06:38:59;4.82;;;1.73;;
33672;SDS011;20011;51.510;9.942;2022-08-01T06:41:26;5.60;;;1.50;;
33672;SDS011;20011;51.510;9.942;2022-08-01T06:43:53;1.98;;;1.23;;
33672;SDS011;20011;51.510;9.942;2022-08-01T06:46:21;3.17;;;1.48;;
33672;SDS011;20011;51.510;9.942;2022-08-01T06:48:55;4.75;;;1.80;;
33672;SDS011;20011;51.510;9.942;2022-08-01T06:51:23;2.58;;;1.58;;
33672;SDS011;20011;51.510;9.942;2022-08-01T06:53:50;3.28;;;1.90;;
33672;SDS011;20011;51.510;9.942;2022-08-01T06:56:18;2.85;;;1.90;;
33672;SDS011;20011;51.510;9.942;2022-08-01T06:58:45;2.75;;;1.63;;
33672;SDS011;20011;51.510;9.942;2022-08-01T07:01:13;2.80;;;1.58;;
33672;SDS011;20011;51.510;9.942;2022-08-01T07:03:40;2.97;;;1.20;;
33672;SDS011;20011;51.510;9.942;2022-08-01T07:06:19;1.30;;;1.25;;
33672;SDS011;20011;51.510;9.942;2022-08-01T07:08:46;1.42;;;1.33;;
33672;SDS011;20011;51.510;9.942;2022-08-01T07:11:14;4.93;;;1.20;;
33672;SDS011;20011;51.510;9.942;2022-08-01T07:13:41;1.77;;;1.40;;
33672;SDS011;20011;51.510;9.942;2022-08-01T07:16:14;3.60;;;1.38;;
33672;SDS011;20011;51.510;9.942;2022-08-01T07:18:41;5.00;;;1.13;;
33672;SDS011;20011;51.510;9.942;2022-08-01T07:21:09;3.80;;;1.30;;
33672;SDS011;20011;51.510;9.942;2022-08-01T07:23:56;3.42;;;1.25;;
33672;SDS011;20011;51.510;9.942;2022-08-01T07:26:24;3.55;;;1.75;;
33672;SDS011;20011;51.510;9.942;2022-08-01T07:28:53;4.00;;;1.40;;
33672;SDS011;20011;51.510;9.942;2022-08-01T07:31:20;2.00;;;1.38;;
33672;SDS011;20011;51.510;9.942;2022-08-01T07:33:49;2.22;;;1.45;;
33672;SDS011;20011;51.510;9.942;2022-08-01T07:36:16;1.65;;;1.55;;
33672;SDS011;20011;51.510;9.942;2022-08-01T07:38:44;1.75;;;1.23;;
33672;SDS011;20011;51.510;9.942;2022-08-01T07:41:12;4.60;;;1.83;;
33672;SDS011;20011;51.510;9.942;2022-08-01T07:43:39;1.48;;;1.38;;
33672;SDS011;20011;51.510;9.942;2022-08-01T07:46:18;1.42;;;1.27;;
33672;SDS011;20011;51.510;9.942;2022-08-01T07:48:45;12.95;;;1.70;;
33672;SDS011;20011;51.510;9.942;2022-08-01T07:51:13;4.10;;;1.58;;
33672;SDS011;20011;51.510;9.942;2022-08-01T07:53:40;2.47;;;1.20;;
33672;SDS011;20011;51.510;9.942;2022-08-01T07:56:07;1.58;;;1.30;;
33672;SDS011;20011;51.510;9.942;2022-08-01T07:58:35;4.47;;;1.23;;
33672;SDS011;20011;51.510;9.942;2022-08-01T08:01:02;0.90;;;0.85;;
33672;SDS011;20011;51.510;9.942;2022-08-01T08:03:29;2.65;;;1.10;;
33672;SDS011;20011;51.510;9.942;2022-08-01T08:05:57;1.05;;;0.98;;
33672;SDS011;20011;51.510;9.942;2022-08-01T08:08:25;2.30;;;1.58;;
33672;SDS011;20011;51.510;9.942;2022-08-01T08:10:53;2.40;;;1.33;;
33672;SDS011;20011;51.510;9.942;2022-08-01T08:13:20;1.95;;;1.40;;
33672;SDS011;20011;51.510;9.942;2022-08-01T08:15:48;1.15;;;1.10;;
33672;SDS011;20011;51.510;9.942;2022-08-01T08:18:15;1.65;;;1.20;;
33672;SDS011;20011;51.510;9.942;2022-08-01T08:20:43;1.40;;;1.20;;
33672;SDS011;20011;51.510;9.942;2022-08-01T08:23:10;1.40;;;1.30;;
33672;SDS011;20011;51.510;9.942;2022-08-01T08:26:08;1.42;;;1.30;;
33672;SDS011;20011;51.510;9.942;2022-08-01T08:28:36;3.28;;;1.17;;
33672;SDS011;20011;51.510;9.942;2022-08-01T08:31:05;1.00;;;0.90;;
33672;SDS011;20011;51.510;9.942;2022-08-01T08:33:51;2.67;;;1.13;;
33672;SDS011;20011;51.510;9.942;2022-08-01T08:36:18;0.95;;;0.93;;
33672;SDS011;20011;51.510;9.942;2022-08-01T08:38:46;3.75;;;1.30;;
33672;SDS011;20011;51.510;9.942;2022-08-01T08:41:13;1.75;;;1.48;;
33672;SDS011;20011;51.510;9.942;2022-08-01T08:43:46;1.63;;;1.25;;
33672;SDS011;20011;51.510;9.942;2022-08-01T08:46:14;1.33;;;1.23;;
33672;SDS011;20011;51.510;9.942;2022-08-01T08:48:41;1.40;;;1.30;;
33672;SDS011;20011;51.510;9.942;2022-08-01T08:51:08;4.43;;;0.90;;
33672;SDS011;20011;51.510;9.942;2022-08-01T08:53:40;1.30;;;1.20;;
33672;SDS011;20011;51.510;9.942;2022-08-01T08:56:11;1.50;;;1.00;;
33672;SDS011;20011;51.510;9.942;2022-08-01T08:58:44;1.23;;;1.13;;
33672;SDS011;20011;51.510;9.942;2022-08-01T09:01:12;2.15;;;1.15;;
33672;SDS011;20011;51.510;9.942;2022-08-01T09:03:39;0.98;;;0.98;;
33672;SDS011;20011;51.510;9.942;2022-08-01T09:06:07;1.00;;;0.90;;
33672;SDS011;20011;51.510;9.942;2022-08-01T09:08:34;1.50;;;1.40;;
33672;SDS011;20011;51.510;9.942;2022-08-01T09:11:02;1.60;;;1.30;;
33672;SDS011;20011;51.510;9.942;2022-08-01T09:13:30;1.75;;;1.15;;
33672;SDS011;20011;51.510;9.942;2022-08-01T09:15:57;3.13;;;1.55;;
33672;SDS011;20011;51.510;9.942;2022-08-01T09:18:35;1.77;;;0.95;;
33672;SDS011;20011;51.510;9.942;2022-08-01T09:23:33;3.60;;;1.13;;
33672;SDS011;20011;51.510;9.942;2022-08-01T09:26:21;2.28;;;1.30;;
33672;SDS011;20011;51.510;9.942;2022-08-01T09:28:56;2.55;;;1.30;;
33672;SDS011;20011;51.510;9.942;2022-08-01T09:31:25;3.13;;;1.25;;
33672;SDS011;20011;51.510;9.942;2022-08-01T09:34:04;1.23;;;0.98;;
33672;SDS011;20011;51.510;9.942;2022-08-01T09:36:44;2.10;;;1.42;;
33672;SDS011;20011;51.510;9.942;2022-08-01T09:39:20;4.10;;;1.60;;
33672;SDS011;20011;51.510;9.942;2022-08-01T09:41:49;2.03;;;1.25;;
33672;SDS011;20011;51.510;9.942;2022-08-01T09:44:26;1.70;;;1.60;;
33672;SDS011;20011;51.510;9.942;2022-08-01T09:47:08;1.60;;;1.40;;
33672;SDS011;20011;51.510;9.942;2022-08-01T09:49:37;6.72;;;1.20;;
33672;SDS011;20011;51.510;9.942;2022-08-01T09:52:21;0.98;;;0.90;;
33672;SDS011;20011;51.510;9.942;2022-08-01T09:54:53;1.20;;;1.10;;
33672;SDS011;20011;51.510;9.942;2022-08-01T09:57:31;0.98;;;0.90;;
33672;SDS011;20011;51.510;9.942;2022-08-01T10:00:00;5.13;;;1.45;;
33672;SDS011;20011;51.510;9.942;2022-08-01T10:02:38;1.20;;;1.00;;
33672;SDS011;20011;51.510;9.942;2022-08-01T10:05:07;3.05;;;1.00;;
33672;SDS011;20011;51.510;9.942;2022-08-01T10:07:56;2.15;;;1.08;;
33672;SDS011;20011;51.510;9.942;2022-08-01T10:10:25;0.95;;;0.80;;
33672;SDS011;20011;51.510;9.942;2022-08-01T10:12:57;1.00;;;0.73;;
33672;SDS011;20011;51.510;9.942;2022-08-01T10:15:26;4.00;;;0.85;;
33672;SDS011;20011;51.510;9.942;2022-08-01T10:18:04;0.73;;;0.70;;
33672;SDS011;20011;51.510;9.942;2022-08-01T10:20:51;2.25;;;0.95;;
33672;SDS011;20011;51.510;9.942;2022-08-01T10:23:24;0.85;;;0.85;;
33672;SDS011;20011;51.510;9.942;2022-08-01T10:26:07;0.60;;;0.60;;
33672;SDS011;20011;51.510;9.942;2022-08-01T10:28:35;4.00;;;0.85;;
33672;SDS011;20011;51.510;9.942;2022-08-01T10:31:05;3.30;;;0.60;;
33672;SDS011;20011;51.510;9.942;2022-08-01T10:33:40;3.15;;;0.70;;
33672;SDS011;20011;51.510;9.942;2022-08-01T10:36:21;0.73;;;0.52;;
33672;SDS011;20011;51.510;9.942;2022-08-01T10:38:51;0.90;;;0.50;;
33672;SDS011;20011;51.510;9.942;2022-08-01T10:41:20;0.45;;;0.45;;
33672;SDS011;20011;51.510;9.942;2022-08-01T10:43:50;1.60;;;0.60;;
33672;SDS011;20011;51.510;9.942;2022-08-01T10:46:18;3.13;;;0.55;;
33672;SDS011;20011;51.510;9.942;2022-08-01T10:48:59;1.50;;;0.70;;
33672;SDS011;20011;51.510;9.942;2022-08-01T10:51:31;1.05;;;0.70;;
33672;SDS011;20011;51.510;9.942;2022-08-01T10:54:18;0.75;;;0.60;;
33672;SDS011;20011;51.510;9.942;2022-08-01T10:56:50;1.40;;;0.70;;
33672;SDS011;20011;51.510;9.942;2022-08-01T11:02:09;0.50;;;0.50;;
33672;SDS011;20011;51.510;9.942;2022-08-01T11:04:42;0.50;;;0.50;;
33672;SDS011;20011;51.510;9.942;2022-08-01T11:07:38;0.85;;;0.70;;
33672;SDS011;20011;51.510;9.942;2022-08-01T11:10:16;0.50;;;0.50;;
33672;SDS011;20011;51.510;9.942;2022-08-01T11:13:12;0.57;;;0.57;;
33672;SDS011;20011;51.510;9.942;2022-08-01T11:15:40;0.73;;;0.73;;
33672;SDS011;20011;51.510;9.942;2022-08-01T11:18:29;0.47;;;0.47;;
33672;SDS011;20011;51.510;9.942;2022-08-01T11:20:58;0.95;;;0.70;;
33672;SDS011;20011;51.510;9.942;2022-08-01T11:23:47;2.97;;;0.80;;
33672;SDS011;20011;51.510;9.942;2022-08-01T11:26:16;0.60;;;0.60;;
33672;SDS011;20011;51.510;9.942;2022-08-01T11:29:11;2.15;;;0.85;;
33672;SDS011;20011;51.510;9.942;2022-08-01T11:31:47;4.57;;;0.90;;
33672;SDS011;20011;51.510;9.942;2022-08-01T11:34:15;1.13;;;1.02;;
33672;SDS011;20011;51.510;9.942;2022-08-01T11:36:42;1.00;;;0.82;;
33672;SDS011;20011;51.510;9.942;2022-08-01T11:39:25;0.70;;;0.70;;
33672;SDS011;20011;51.510;9.942;2022-08-01T11:44:49;1.92;;;1.10;;
33672;SDS011;20011;51.510;9.942;2022-08-01T11:47:16;5.13;;;1.23;;
33672;SDS011;20011;51.510;9.942;2022-08-01T11:49:47;1.65;;;1.10;;
33672;SDS011;20011;51.510;9.942;2022-08-01T11:52:26;2.20;;;1.60;;
33672;SDS011;20011;51.510;9.942;2022-08-01T11:57:30;1.30;;;1.17;;
33672;SDS011;20011;51.510;9.942;2022-08-01T12:00:14;0.98;;;0.93;;
33672;SDS011;20011;51.510;9.942;2022-08-01T12:02:44;1.40;;;1.20;;
33672;SDS011;20011;51.510;9.942;2022-08-01T12:05:14;1.35;;;1.25;;
33672;SDS011;20011;51.510;9.942;2022-08-01T12:07:50;3.40;;;1.10;;
33672;SDS011;20011;51.510;9.942;2022-08-01T12:10:22;2.95;;;1.10;;
33672;SDS011;20011;51.510;9.942;2022-08-01T12:12:59;2.60;;;1.30;;
33672;SDS011;20011;51.510;9.942;2022-08-01T12:15:34;1.88;;;1.15;;
33672;SDS011;20011;51.510;9.942;2022-08-01T12:18:03;2.90;;;1.38;;
33672;SDS011;20011;51.510;9.942;2022-08-01T12:20:33;1.88;;;0.90;;
33672;SDS011;20011;51.510;9.942;2022-08-01T12:23:19;0.82;;;0.82;;
33672;SDS011;20011;51.510;9.942;2022-08-01T12:25:50;1.27;;;1.08;;
33672;SDS011;20011;51.510;9.942;2022-08-01T12:28:18;1.77;;;1.10;;
33672;SDS011;20011;51.510;9.942;2022-08-01T12:30:47;1.08;;;0.98;;
33672;SDS011;20011;51.510;9.942;2022-08-01T12:33:19;3.38;;;0.80;;
33672;SDS011;20011;51.510;9.942;2022-08-01T12:35:47;1.20;;;0.98;;
33672;SDS011;20011;51.510;9.942;2022-08-01T12:38:15;1.13;;;0.93;;
33672;SDS011;20011;51.510;9.942;2022-08-01T12:40:43;2.67;;;1.00;;
33672;SDS011;20011;51.510;9.942;2022-08-01T12:43:18;2.60;;;1.00;;
33672;SDS011;20011;51.510;9.942;2022-08-01T12:45:54;1.30;;;0.95;;
33672;SDS011;20011;51.510;9.942;2022-08-01T12:48:24;0.90;;;0.90;;
33672;SDS011;20011;51.510;9.942;2022-08-01T12:50:52;1.63;;;1.10;;
33672;SDS011;20011;51.510;9.942;2022-08-01T12:55:50;1.42;;;1.15;;
33672;SDS011;20011;51.510;9.942;2022-08-01T12:58:32;5.00;;;1.08;;
33672;SDS011;20011;51.510;9.942;2022-08-01T13:01:04;1.23;;;1.13;;
33672;SDS011;20011;51.510;9.942;2022-08-01T13:03:33;1.40;;;0.70;;
33672;SDS011;20011;51.510;9.942;2022-08-01T13:06:00;1.23;;;0.68;;
33672;SDS011;20011;51.510;9.942;2022-08-01T13:08:31;6.47;;;0.77;;
33672;SDS011;20011;51.510;9.942;2022-08-01T13:11:00;0.60;;;0.60;;
33672;SDS011;20011;51.510;9.942;2022-08-01T13:13:43;0.88;;;0.80;;
33672;SDS011;20011;51.510;9.942;2022-08-01T13:16:14;1.48;;;0.95;;
33672;SDS011;20011;51.510;9.942;2022-08-01T13:19:12;0.73;;;0.68;;
33672;SDS011;20011;51.510;9.942;2022-08-01T13:21:39;0.50;;;0.50;;
33672;SDS011;20011;51.510;9.942;2022-08-01T13:24:28;0.68;;;0.68;;
33672;SDS011;20011;51.510;9.942;2022-08-01T13:26:56;3.85;;;1.00;;
33672;SDS011;20011;51.510;9.942;2022-08-01T13:35:02;3.63;;;0.90;;
33672;SDS011;20011;51.510;9.942;2022-08-01T13:37:31;0.80;;;0.80;;
33672;SDS011;20011;51.510;9.942;2022-08-01T13:39:58;1.65;;;0.90;;
33672;SDS011;20011;51.510;9.942;2022-08-01T13:42:25;0.85;;;0.70;;
33672;SDS011;20011;51.510;9.942;2022-08-01T13:44:55;1.38;;;0.90;;
33672;SDS011;20011;51.510;9.942;2022-08-01T13:47:22;1.30;;;0.52;;
33672;SDS011;20011;51.510;9.942;2022-08-01T13:49:58;0.80;;;0.80;;
33672;SDS011;20011;51.510;9.942;2022-08-01T13:52:28;1.20;;;0.75;;
33672;SDS011;20011;51.510;9.942;2022-08-01T13:54:57;1.27;;;0.80;;
33672;SDS011;20011;51.510;9.942;2022-08-01T13:57:25;1.10;;;0.93;;
33672;SDS011;20011;51.510;9.942;2022-08-01T14:00:03;4.22;;;1.00;;
33672;SDS011;20011;51.510;9.942;2022-08-01T14:02:37;0.63;;;0.63;;
33672;SDS011;20011;51.510;9.942;2022-08-01T14:05:05;0.60;;;0.60;;
33672;SDS011;20011;51.510;9.942;2022-08-01T14:07:37;0.85;;;0.60;;
33672;SDS011;20011;51.510;9.942;2022-08-01T14:10:06;0.77;;;0.77;;
33672;SDS011;20011;51.510;9.942;2022-08-01T14:12:44;0.80;;;0.80;;
33672;SDS011;20011;51.510;9.942;2022-08-01T14:15:13;0.88;;;0.88;;
33672;SDS011;20011;51.510;9.942;2022-08-01T14:18:00;0.85;;;0.85;;
33672;SDS011;20011;51.510;9.942;2022-08-01T14:20:31;3.38;;;1.35;;
33672;SDS011;20011;51.510;9.942;2022-08-01T14:22:58;1.10;;;0.95;;
33672;SDS011;20011;51.510;9.942;2022-08-01T14:25:25;1.10;;;1.00;;
33672;SDS011;20011;51.510;9.942;2022-08-01T14:28:13;0.90;;;0.90;;
33672;SDS011;20011;51.510;9.942;2022-08-01T14:30:40;1.02;;;0.95;;
33672;SDS011;20011;51.510;9.942;2022-08-01T14:33:09;2.20;;;1.20;;
33672;SDS011;20011;51.510;9.942;2022-08-01T14:35:37;2.10;;;1.10;;
33672;SDS011;20011;51.510;9.942;2022-08-01T14:38:25;0.60;;;0.60;;
33672;SDS011;20011;51.510;9.942;2022-08-01T14:40:58;0.77;;;0.77;;
33672;SDS011;20011;51.510;9.942;2022-08-01T14:43:26;3.55;;;0.90;;
33672;SDS011;20011;51.510;9.942;2022-08-01T14:45:59;0.88;;;0.70;;
33672;SDS011;20011;51.510;9.942;2022-08-01T14:48:27;3.08;;;0.52;;
33672;SDS011;20011;51.510;9.942;2022-08-01T14:50:56;0.75;;;0.60;;
33672;SDS011;20011;51.510;9.942;2022-08-01T14:53:23;1.27;;;0.68;;
33672;SDS011;20011;51.510;9.942;2022-08-01T14:55:50;1.88;;;0.50;;
33672;SDS011;20011;51.510;9.942;2022-08-01T14:58:18;1.08;;;0.65;;
33672;SDS011;20011;51.510;9.942;2022-08-01T15:00:45;0.43;;;0.43;;
33672;SDS011;20011;51.510;9.942;2022-08-01T15:03:13;2.20;;;0.80;;
33672;SDS011;20011;51.510;9.942;2022-08-01T15:05:40;0.77;;;0.77;;
33672;SDS011;20011;51.510;9.942;2022-08-01T15:08:07;1.08;;;0.88;;
33672;SDS011;20011;51.510;9.942;2022-08-01T15:10:34;1.25;;;0.95;;
33672;SDS011;20011;51.510;9.942;2022-08-01T15:13:01;2.75;;;0.80;;
33672;SDS011;20011;51.510;9.942;2022-08-01T15:15:28;4.13;;;0.73;;
33672;SDS011;20011;51.510;9.942;2022-08-01T15:17:56;0.80;;;0.80;;
33672;SDS011;20011;51.510;9.942;2022-08-01T15:20:23;1.10;;;0.85;;
33672;SDS011;20011;51.510;9.942;2022-08-01T15:22:51;0.73;;;0.65;;
33672;SDS011;20011;51.510;9.942;2022-08-01T15:25:19;1.15;;;0.70;;
33672;SDS011;20011;51.510;9.942;2022-08-01T15:27:46;0.82;;;0.80;;
33672;SDS011;20011;51.510;9.942;2022-08-01T15:30:14;2.03;;;0.80;;
33672;SDS011;20011;51.510;9.942;2022-08-01T15:32:41;1.17;;;0.80;;
33672;SDS011;20011;51.510;9.942;2022-08-01T15:35:08;3.22;;;0.70;;
33672;SDS011;20011;51.510;9.942;2022-08-01T15:37:39;6.07;;;0.90;;
33672;SDS011;20011;51.510;9.942;2022-08-01T15:40:09;0.43;;;0.43;;